sensor_id;sensor_type;location;lat;lon;timestamp;temperature;humidity
8886;DHT22;4479;51.162;13.906;2024-02-26T00:16:04;4.70;99.90
8886;DHT22;4479;51.162;13.906;2024-02-26T00:36:12;4.90;99.90
8886;DHT22;4479;51.162;13.906;2024-02-26T00:56:18;4.90;99.90
8886;DHT22;4479;51.162;13.906;2024-02-26T01:16:24;4.80;99.90
8886;DHT22;4479;51.162;13.906;2024-02-26T01:46:34;4.70;99.90
8886;DHT22;4479;51.162;13.906;2024-02-26T01:56:40;4.60;99.90
8886;DHT22;4479;51.162;13.906;2024-02-26T02:06:44;4.60;99.90
8886;DHT22;4479;51.162;13.906;2024-02-26T02:16:48;4.50;99.90
8886;DHT22;4479;51.162;13.906;2024-02-26T02:36:54;4.40;99.90
8886;DHT22;4479;51.162;13.906;2024-02-26T02:46:58;4.30;99.90
8886;DHT22;4479;51.162;13.906;2024-02-26T03:07:03;4.20;99.90
8886;DHT22;4479;51.162;13.906;2024-02-26T03:47:16;4.00;99.90
8886;DHT22;4479;51.162;13.906;2024-02-26T04:07:21;4.00;99.90
8886;DHT22;4479;51.162;13.906;2024-02-26T04:27:27;4.00;99.90
8886;DHT22;4479;51.162;13.906;2024-02-26T04:47:33;3.90;99.90
8886;DHT22;4479;51.162;13.906;2024-02-26T05:47:54;4.10;99.90
8886;DHT22;4479;51.162;13.906;2024-02-26T06:08:00;4.10;99.90
8886;DHT22;4479;51.162;13.906;2024-02-26T06:48:14;4.50;99.90
8886;DHT22;4479;51.162;13.906;2024-02-26T07:08:20;5.20;99.90
8886;DHT22;4479;51.162;13.906;2024-02-26T07:48:31;6.50;99.90
8886;DHT22;4479;51.162;13.906;2024-02-26T08:08:37;7.10;99.90
8886;DHT22;4479;51.162;13.906;2024-02-26T08:28:42;7.80;99.90
8886;DHT22;4479;51.162;13.906;2024-02-26T08:48:48;8.40;99.90
8886;DHT22;4479;51.162;13.906;2024-02-26T09:08:55;9.10;99.90
8886;DHT22;4479;51.162;13.906;2024-02-26T09:29:01;9.70;99.90
8886;DHT22;4479;51.162;13.906;2024-02-26T09:49:06;10.30;99.90
8886;DHT22;4479;51.162;13.906;2024-02-26T10:09:16;11.00;99.90
8886;DHT22;4479;51.162;13.906;2024-02-26T10:19:27;11.20;99.90
8886;DHT22;4479;51.162;13.906;2024-02-26T10:29:31;11.50;99.90
8886;DHT22;4479;51.162;13.906;2024-02-26T10:39:35;11.70;99.90
8886;DHT22;4479;51.162;13.906;2024-02-26T10:49:45;12.00;99.90
8886;DHT22;4479;51.162;13.906;2024-02-26T10:59:49;12.10;99.90
8886;DHT22;4479;51.162;13.906;2024-02-26T11:09:56;12.30;99.90
8886;DHT22;4479;51.162;13.906;2024-02-26T11:20:00;12.50;99.90
8886;DHT22;4479;51.162;13.906;2024-02-26T11:30:05;12.60;99.90
8886;DHT22;4479;51.162;13.906;2024-02-26T11:40:11;12.70;99.90
8886;DHT22;4479;51.162;13.906;2024-02-26T11:50:36;12.90;99.90
8886;DHT22;4479;51.162;13.906;2024-02-26T16:52:27;12.40;99.90
8886;DHT22;4479;51.162;13.906;2024-02-26T17:12:33;12.20;99.90
8886;DHT22;4479;51.162;13.906;2024-02-26T17:32:38;12.00;99.90
8886;DHT22;4479;51.162;13.906;2024-02-26T17:52:44;11.90;99.90
8886;DHT22;4479;51.162;13.906;2024-02-26T18:32:56;11.20;99.90
8886;DHT22;4479;51.162;13.906;2024-02-26T19:13:11;10.10;99.90
8886;DHT22;4479;51.162;13.906;2024-02-26T19:33:16;9.50;99.90
8886;DHT22;4479;51.162;13.906;2024-02-26T19:53:21;8.90;99.90
8886;DHT22;4479;51.162;13.906;2024-02-26T20:13:27;8.50;99.90
8886;DHT22;4479;51.162;13.906;2024-02-26T20:33:34;8.10;99.90
8886;DHT22;4479;51.162;13.906;2024-02-26T20:53:41;7.80;99.90
8886;DHT22;4479;51.162;13.906;2024-02-26T21:13:48;7.60;99.90
8886;DHT22;4479;51.162;13.906;2024-02-26T22:34:19;6.60;99.90
